sensor_id;sensor_type;location;lat;lon;timestamp;temperature;humidity
16655;DHT22;8441;51.344;7.022;2023-02-28T00:00:14;-1.40;99.90
16655;DHT22;8441;51.344;7.022;2023-02-28T00:02:42;-1.30;99.90
16655;DHT22;8441;51.344;7.022;2023-02-28T00:05:12;-1.20;99.90
16655;DHT22;8441;51.344;7.022;2023-02-28T00:07:41;-1.10;99.90
16655;DHT22;8441;51.344;7.022;2023-02-28T00:10:10;-1.10;99.90
16655;DHT22;8441;51.344;7.022;2023-02-28T00:12:38;-1.00;99.90
16655;DHT22;8441;51.344;7.022;2023-02-28T00:15:07;-1.00;99.90
16655;DHT22;8441;51.344;7.022;2023-02-28T00:17:35;-1.00;99.90
16655;DHT22;8441;51.344;7.022;2023-02-28T00:20:03;-1.00;99.90
16655;DHT22;8441;51.344;7.022;2023-02-28T00:22:34;-1.00;99.90
16655;DHT22;8441;51.344;7.022;2023-02-28T00:25:02;-1.00;99.90
16655;DHT22;8441;51.344;7.022;2023-02-28T00:27:30;-1.00;99.90
16655;DHT22;8441;51.344;7.022;2023-02-28T00:29:57;-1.10;99.90
16655;DHT22;8441;51.344;7.022;2023-02-28T00:32:25;-1.10;99.90
16655;DHT22;8441;51.344;7.022;2023-02-28T00:34:52;-1.20;99.90
16655;DHT22;8441;51.344;7.022;2023-02-28T00:37:19;-1.30;99.90
16655;DHT22;8441;51.344;7.022;2023-02-28T00:39:46;-1.40;99.90
16655;DHT22;8441;51.344;7.022;2023-02-28T00:42:15;-1.40;99.90
16655;DHT22;8441;51.344;7.022;2023-02-28T00:44:42;-1.50;99.90
16655;DHT22;8441;51.344;7.022;2023-02-28T00:47:09;-1.60;99.90
16655;DHT22;8441;51.344;7.022;2023-02-28T00:49:37;-1.60;99.90
16655;DHT22;8441;51.344;7.022;2023-02-28T00:52:04;-1.70;99.90
16655;DHT22;8441;51.344;7.022;2023-02-28T00:54:31;-1.70;99.90
16655;DHT22;8441;51.344;7.022;2023-02-28T00:56:58;-1.80;99.90
16655;DHT22;8441;51.344;7.022;2023-02-28T00:59:27;-1.80;99.90
16655;DHT22;8441;51.344;7.022;2023-02-28T01:01:54;-1.80;99.90
16655;DHT22;8441;51.344;7.022;2023-02-28T01:04:21;-1.70;99.90
16655;DHT22;8441;51.344;7.022;2023-02-28T01:06:48;-1.70;99.90
16655;DHT22;8441;51.344;7.022;2023-02-28T01:09:16;-1.70;99.90
16655;DHT22;8441;51.344;7.022;2023-02-28T01:11:43;-1.70;99.90
16655;DHT22;8441;51.344;7.022;2023-02-28T01:14:17;-1.60;99.90
16655;DHT22;8441;51.344;7.022;2023-02-28T01:16:46;-1.70;99.90
16655;DHT22;8441;51.344;7.022;2023-02-28T01:19:13;-1.70;99.90
16655;DHT22;8441;51.344;7.022;2023-02-28T01:21:41;-1.70;99.90
16655;DHT22;8441;51.344;7.022;2023-02-28T01:24:08;-1.80;99.90
16655;DHT22;8441;51.344;7.022;2023-02-28T01:26:35;-1.80;99.90
16655;DHT22;8441;51.344;7.022;2023-02-28T01:29:02;-1.90;99.90
16655;DHT22;8441;51.344;7.022;2023-02-28T01:31:29;-1.90;99.90
16655;DHT22;8441;51.344;7.022;2023-02-28T01:33:58;-1.90;99.90
16655;DHT22;8441;51.344;7.022;2023-02-28T01:36:25;-2.00;99.90
16655;DHT22;8441;51.344;7.022;2023-02-28T01:38:53;-2.00;99.90
16655;DHT22;8441;51.344;7.022;2023-02-28T01:41:22;-2.00;99.90
16655;DHT22;8441;51.344;7.022;2023-02-28T01:43:59;-2.10;99.90
16655;DHT22;8441;51.344;7.022;2023-02-28T01:46:28;-2.10;99.90
16655;DHT22;8441;51.344;7.022;2023-02-28T01:49:02;-2.00;99.90
16655;DHT22;8441;51.344;7.022;2023-02-28T01:51:33;-2.00;99.90
16655;DHT22;8441;51.344;7.022;2023-02-28T01:54:05;-2.10;99.90
16655;DHT22;8441;51.344;7.022;2023-02-28T01:56:41;-2.20;99.90
16655;DHT22;8441;51.344;7.022;2023-02-28T01:59:09;-2.20;99.90
16655;DHT22;8441;51.344;7.022;2023-02-28T02:01:37;-2.20;99.90
16655;DHT22;8441;51.344;7.022;2023-02-28T02:04:05;-2.20;99.90
16655;DHT22;8441;51.344;7.022;2023-02-28T02:06:36;-2.30;99.90
16655;DHT22;8441;51.344;7.022;2023-02-28T02:09:04;-2.40;99.90
16655;DHT22;8441;51.344;7.022;2023-02-28T02:11:32;-2.50;99.90
16655;DHT22;8441;51.344;7.022;2023-02-28T02:14:21;-2.60;99.90
16655;DHT22;8441;51.344;7.022;2023-02-28T02:17:05;-2.60;99.90
16655;DHT22;8441;51.344;7.022;2023-02-28T02:22:53;-2.50;99.90
16655;DHT22;8441;51.344;7.022;2023-02-28T02:25:30;-2.50;99.90
16655;DHT22;8441;51.344;7.022;2023-02-28T02:31:33;-2.60;99.90
16655;DHT22;8441;51.344;7.022;2023-02-28T02:37:25;-2.70;99.90
16655;DHT22;8441;51.344;7.022;2023-02-28T02:39:59;-2.80;99.90
16655;DHT22;8441;51.344;7.022;2023-02-28T02:42:29;-2.80;99.90
16655;DHT22;8441;51.344;7.022;2023-02-28T02:45:01;-2.80;99.90
16655;DHT22;8441;51.344;7.022;2023-02-28T02:47:31;-2.80;99.90
16655;DHT22;8441;51.344;7.022;2023-02-28T02:50:02;-2.80;99.90
16655;DHT22;8441;51.344;7.022;2023-02-28T02:52:36;-2.80;99.90
16655;DHT22;8441;51.344;7.022;2023-02-28T02:55:07;-2.80;99.90
16655;DHT22;8441;51.344;7.022;2023-02-28T02:57:42;-2.70;99.90
16655;DHT22;8441;51.344;7.022;2023-02-28T03:00:11;-2.70;99.90
16655;DHT22;8441;51.344;7.022;2023-02-28T03:02:40;-2.60;99.90
16655;DHT22;8441;51.344;7.022;2023-02-28T03:05:12;-2.70;99.90
16655;DHT22;8441;51.344;7.022;2023-02-28T03:07:43;-2.70;99.90
16655;DHT22;8441;51.344;7.022;2023-02-28T03:10:31;-2.70;99.90
16655;DHT22;8441;51.344;7.022;2023-02-28T03:13:31;-2.70;99.90
16655;DHT22;8441;51.344;7.022;2023-02-28T03:18:58;-2.60;99.90
16655;DHT22;8441;51.344;7.022;2023-02-28T03:21:34;-2.60;99.90
16655;DHT22;8441;51.344;7.022;2023-02-28T03:24:07;-2.70;99.90
16655;DHT22;8441;51.344;7.022;2023-02-28T03:26:38;-2.70;99.90
16655;DHT22;8441;51.344;7.022;2023-02-28T03:29:11;-2.80;99.90
16655;DHT22;8441;51.344;7.022;2023-02-28T03:31:46;-2.80;99.90
16655;DHT22;8441;51.344;7.022;2023-02-28T03:34:19;-2.90;99.90
16655;DHT22;8441;51.344;7.022;2023-02-28T03:36:55;-2.90;99.90
16655;DHT22;8441;51.344;7.022;2023-02-28T03:39:28;-2.90;99.90
16655;DHT22;8441;51.344;7.022;2023-02-28T03:42:00;-3.00;99.90
16655;DHT22;8441;51.344;7.022;2023-02-28T03:44:30;-2.90;99.90
16655;DHT22;8441;51.344;7.022;2023-02-28T03:47:03;-3.00;99.90
16655;DHT22;8441;51.344;7.022;2023-02-28T03:49:34;-3.00;99.90
16655;DHT22;8441;51.344;7.022;2023-02-28T03:52:04;-2.90;99.90
16655;DHT22;8441;51.344;7.022;2023-02-28T03:54:38;-3.00;99.90
16655;DHT22;8441;51.344;7.022;2023-02-28T03:57:12;-3.00;99.90
16655;DHT22;8441;51.344;7.022;2023-02-28T03:59:45;-3.00;99.90
16655;DHT22;8441;51.344;7.022;2023-02-28T04:02:14;-3.00;99.90
16655;DHT22;8441;51.344;7.022;2023-02-28T04:04:41;-3.00;99.90
16655;DHT22;8441;51.344;7.022;2023-02-28T04:07:14;-3.10;99.90
16655;DHT22;8441;51.344;7.022;2023-02-28T04:09:43;-3.00;99.90
16655;DHT22;8441;51.344;7.022;2023-02-28T04:12:10;-3.00;99.90
16655;DHT22;8441;51.344;7.022;2023-02-28T04:14:37;-3.00;99.90
16655;DHT22;8441;51.344;7.022;2023-02-28T04:17:04;-2.90;99.90
16655;DHT22;8441;51.344;7.022;2023-02-28T04:19:32;-3.00;99.90
16655;DHT22;8441;51.344;7.022;2023-02-28T04:21:59;-3.00;99.90
16655;DHT22;8441;51.344;7.022;2023-02-28T04:24:27;-3.00;99.90
16655;DHT22;8441;51.344;7.022;2023-02-28T04:26:58;-3.10;99.90
16655;DHT22;8441;51.344;7.022;2023-02-28T04:29:26;-3.10;99.90
16655;DHT22;8441;51.344;7.022;2023-02-28T04:31:54;-3.20;99.90
16655;DHT22;8441;51.344;7.022;2023-02-28T04:34:23;-3.30;99.90
16655;DHT22;8441;51.344;7.022;2023-02-28T04:36:50;-3.30;99.90
16655;DHT22;8441;51.344;7.022;2023-02-28T04:39:20;-3.30;99.90
16655;DHT22;8441;51.344;7.022;2023-02-28T04:41:48;-3.40;99.90
16655;DHT22;8441;51.344;7.022;2023-02-28T04:44:16;-3.40;99.90
16655;DHT22;8441;51.344;7.022;2023-02-28T04:46:44;-3.50;99.90
16655;DHT22;8441;51.344;7.022;2023-02-28T04:49:12;-3.50;99.90
16655;DHT22;8441;51.344;7.022;2023-02-28T04:51:39;-3.50;99.90
16655;DHT22;8441;51.344;7.022;2023-02-28T04:54:07;-3.60;99.90
16655;DHT22;8441;51.344;7.022;2023-02-28T04:56:35;-3.60;99.90
16655;DHT22;8441;51.344;7.022;2023-02-28T04:59:02;-3.60;99.90
16655;DHT22;8441;51.344;7.022;2023-02-28T05:01:32;-3.60;99.90
16655;DHT22;8441;51.344;7.022;2023-02-28T05:04:01;-3.60;99.90
16655;DHT22;8441;51.344;7.022;2023-02-28T05:06:31;-3.60;99.90
16655;DHT22;8441;51.344;7.022;2023-02-28T05:08:58;-3.60;99.90
16655;DHT22;8441;51.344;7.022;2023-02-28T05:11:28;-3.60;99.90
16655;DHT22;8441;51.344;7.022;2023-02-28T05:14:00;-3.60;99.90
16655;DHT22;8441;51.344;7.022;2023-02-28T05:16:27;-3.60;99.90
16655;DHT22;8441;51.344;7.022;2023-02-28T05:18:56;-3.60;99.90
16655;DHT22;8441;51.344;7.022;2023-02-28T05:21:26;-3.60;99.90
16655;DHT22;8441;51.344;7.022;2023-02-28T05:23:55;-3.50;99.90
16655;DHT22;8441;51.344;7.022;2023-02-28T05:26:23;-3.60;99.90
16655;DHT22;8441;51.344;7.022;2023-02-28T05:28:52;-3.50;99.90
16655;DHT22;8441;51.344;7.022;2023-02-28T05:31:19;-3.70;99.90
16655;DHT22;8441;51.344;7.022;2023-02-28T05:33:46;-3.70;99.90
16655;DHT22;8441;51.344;7.022;2023-02-28T05:36:15;-3.80;99.90
16655;DHT22;8441;51.344;7.022;2023-02-28T05:38:42;-3.80;99.90
16655;DHT22;8441;51.344;7.022;2023-02-28T05:41:10;-3.80;99.90
16655;DHT22;8441;51.344;7.022;2023-02-28T05:43:37;-3.90;99.90
16655;DHT22;8441;51.344;7.022;2023-02-28T05:46:05;-3.90;99.90
16655;DHT22;8441;51.344;7.022;2023-02-28T05:48:33;-3.90;99.90
16655;DHT22;8441;51.344;7.022;2023-02-28T05:51:01;-3.90;99.90
16655;DHT22;8441;51.344;7.022;2023-02-28T05:53:30;-3.90;99.90
16655;DHT22;8441;51.344;7.022;2023-02-28T05:55:58;-4.00;99.90
16655;DHT22;8441;51.344;7.022;2023-02-28T05:58:25;-3.90;99.90
16655;DHT22;8441;51.344;7.022;2023-02-28T06:00:56;-4.00;99.90
16655;DHT22;8441;51.344;7.022;2023-02-28T06:03:23;-4.00;99.90
16655;DHT22;8441;51.344;7.022;2023-02-28T06:05:51;-4.00;99.90
16655;DHT22;8441;51.344;7.022;2023-02-28T06:08:18;-4.00;99.90
16655;DHT22;8441;51.344;7.022;2023-02-28T06:10:47;-4.00;99.90
16655;DHT22;8441;51.344;7.022;2023-02-28T06:13:14;-4.00;99.90
16655;DHT22;8441;51.344;7.022;2023-02-28T06:15:41;-4.00;99.90
16655;DHT22;8441;51.344;7.022;2023-02-28T06:18:09;-4.10;99.90
16655;DHT22;8441;51.344;7.022;2023-02-28T06:20:36;-4.00;99.90
16655;DHT22;8441;51.344;7.022;2023-02-28T06:23:03;-4.10;99.90
16655;DHT22;8441;51.344;7.022;2023-02-28T06:25:30;-4.10;99.90
16655;DHT22;8441;51.344;7.022;2023-02-28T06:27:59;-4.10;99.90
16655;DHT22;8441;51.344;7.022;2023-02-28T06:30:26;-4.10;99.90
16655;DHT22;8441;51.344;7.022;2023-02-28T06:32:56;-4.20;99.90
16655;DHT22;8441;51.344;7.022;2023-02-28T06:35:23;-4.20;99.90
16655;DHT22;8441;51.344;7.022;2023-02-28T06:37:51;-4.20;99.90
16655;DHT22;8441;51.344;7.022;2023-02-28T06:40:18;-4.10;99.90
16655;DHT22;8441;51.344;7.022;2023-02-28T06:42:45;-4.10;99.90
16655;DHT22;8441;51.344;7.022;2023-02-28T06:45:14;-4.00;99.90
16655;DHT22;8441;51.344;7.022;2023-02-28T06:47:41;-4.00;99.90
16655;DHT22;8441;51.344;7.022;2023-02-28T06:50:10;-4.00;99.90
16655;DHT22;8441;51.344;7.022;2023-02-28T06:52:38;-3.90;99.90
16655;DHT22;8441;51.344;7.022;2023-02-28T06:55:06;-3.90;99.90
16655;DHT22;8441;51.344;7.022;2023-02-28T06:57:35;-3.90;99.90
16655;DHT22;8441;51.344;7.022;2023-02-28T07:00:05;-3.90;99.90
16655;DHT22;8441;51.344;7.022;2023-02-28T07:02:34;-3.90;99.90
16655;DHT22;8441;51.344;7.022;2023-02-28T07:05:02;-3.90;99.90
16655;DHT22;8441;51.344;7.022;2023-02-28T07:07:29;-3.80;99.90
16655;DHT22;8441;51.344;7.022;2023-02-28T07:09:56;-3.80;99.90
16655;DHT22;8441;51.344;7.022;2023-02-28T07:12:23;-3.60;99.90
16655;DHT22;8441;51.344;7.022;2023-02-28T07:14:50;-3.60;99.90
16655;DHT22;8441;51.344;7.022;2023-02-28T07:17:17;-3.50;99.90
16655;DHT22;8441;51.344;7.022;2023-02-28T07:19:46;-3.50;99.90
16655;DHT22;8441;51.344;7.022;2023-02-28T07:22:13;-3.50;99.90
16655;DHT22;8441;51.344;7.022;2023-02-28T07:24:40;-3.50;99.90
16655;DHT22;8441;51.344;7.022;2023-02-28T07:27:07;-3.40;99.90
16655;DHT22;8441;51.344;7.022;2023-02-28T07:29:34;-3.50;99.90
16655;DHT22;8441;51.344;7.022;2023-02-28T07:32:03;-3.50;99.90
16655;DHT22;8441;51.344;7.022;2023-02-28T07:34:30;-3.40;99.90
16655;DHT22;8441;51.344;7.022;2023-02-28T07:36:58;-3.40;99.90
16655;DHT22;8441;51.344;7.022;2023-02-28T07:39:29;-3.40;99.90
16655;DHT22;8441;51.344;7.022;2023-02-28T07:41:56;-3.40;99.90
16655;DHT22;8441;51.344;7.022;2023-02-28T07:44:23;-3.20;99.90
16655;DHT22;8441;51.344;7.022;2023-02-28T07:46:50;-3.10;99.90
16655;DHT22;8441;51.344;7.022;2023-02-28T07:49:18;-3.10;99.90
16655;DHT22;8441;51.344;7.022;2023-02-28T07:51:45;-3.10;99.90
16655;DHT22;8441;51.344;7.022;2023-02-28T07:54:13;-3.00;99.90
16655;DHT22;8441;51.344;7.022;2023-02-28T07:56:41;-3.00;99.90
16655;DHT22;8441;51.344;7.022;2023-02-28T07:59:08;-2.80;99.90
16655;DHT22;8441;51.344;7.022;2023-02-28T08:01:35;-2.80;99.90
16655;DHT22;8441;51.344;7.022;2023-02-28T08:04:02;-2.70;99.90
16655;DHT22;8441;51.344;7.022;2023-02-28T08:06:29;-2.60;99.90
16655;DHT22;8441;51.344;7.022;2023-02-28T08:08:56;-2.50;99.90
16655;DHT22;8441;51.344;7.022;2023-02-28T08:11:25;-2.40;99.90
16655;DHT22;8441;51.344;7.022;2023-02-28T08:13:52;-2.30;99.90
16655;DHT22;8441;51.344;7.022;2023-02-28T08:16:19;-2.10;99.90
16655;DHT22;8441;51.344;7.022;2023-02-28T08:18:48;-1.90;99.90
16655;DHT22;8441;51.344;7.022;2023-02-28T08:21:16;-1.80;99.90
16655;DHT22;8441;51.344;7.022;2023-02-28T08:23:43;-1.60;99.90
16655;DHT22;8441;51.344;7.022;2023-02-28T08:26:10;-1.40;99.90
16655;DHT22;8441;51.344;7.022;2023-02-28T08:28:39;-1.40;99.90
16655;DHT22;8441;51.344;7.022;2023-02-28T08:31:11;-1.30;99.90
16655;DHT22;8441;51.344;7.022;2023-02-28T08:33:39;-1.10;99.90
16655;DHT22;8441;51.344;7.022;2023-02-28T08:36:08;-1.10;99.90
16655;DHT22;8441;51.344;7.022;2023-02-28T08:38:36;-1.00;99.90
16655;DHT22;8441;51.344;7.022;2023-02-28T08:41:05;-0.90;99.90
16655;DHT22;8441;51.344;7.022;2023-02-28T08:43:35;-0.80;99.90
16655;DHT22;8441;51.344;7.022;2023-02-28T08:46:04;-0.70;99.90
16655;DHT22;8441;51.344;7.022;2023-02-28T08:48:33;-0.70;99.90
16655;DHT22;8441;51.344;7.022;2023-02-28T08:51:01;-0.60;99.90
16655;DHT22;8441;51.344;7.022;2023-02-28T08:53:29;-0.50;99.90
16655;DHT22;8441;51.344;7.022;2023-02-28T08:55:58;-0.40;99.90
16655;DHT22;8441;51.344;7.022;2023-02-28T08:58:25;-0.40;99.90
16655;DHT22;8441;51.344;7.022;2023-02-28T09:00:53;-0.40;99.90
16655;DHT22;8441;51.344;7.022;2023-02-28T09:03:22;-0.40;99.90
16655;DHT22;8441;51.344;7.022;2023-02-28T09:05:54;-0.30;99.90
16655;DHT22;8441;51.344;7.022;2023-02-28T09:08:22;-0.30;99.90
16655;DHT22;8441;51.344;7.022;2023-02-28T09:10:50;-0.20;99.90
16655;DHT22;8441;51.344;7.022;2023-02-28T09:13:18;-0.20;99.90
16655;DHT22;8441;51.344;7.022;2023-02-28T09:15:45;-0.20;99.90
16655;DHT22;8441;51.344;7.022;2023-02-28T09:18:12;-0.10;99.90
16655;DHT22;8441;51.344;7.022;2023-02-28T09:27:25;-0.10;99.90
16655;DHT22;8441;51.344;7.022;2023-02-28T09:29:52;-0.10;99.90
16655;DHT22;8441;51.344;7.022;2023-02-28T09:32:19;-0.10;99.90
16655;DHT22;8441;51.344;7.022;2023-02-28T09:34:46;0.20;99.90
16655;DHT22;8441;51.344;7.022;2023-02-28T09:37:13;0.50;99.90
16655;DHT22;8441;51.344;7.022;2023-02-28T09:39:40;0.70;99.90
16655;DHT22;8441;51.344;7.022;2023-02-28T09:42:21;0.80;99.90
16655;DHT22;8441;51.344;7.022;2023-02-28T09:44:51;0.90;99.90
16655;DHT22;8441;51.344;7.022;2023-02-28T09:47:27;1.10;99.90
16655;DHT22;8441;51.344;7.022;2023-02-28T09:49:58;1.20;99.90
16655;DHT22;8441;51.344;7.022;2023-02-28T09:52:29;1.20;99.90
16655;DHT22;8441;51.344;7.022;2023-02-28T09:55:00;1.40;99.90
16655;DHT22;8441;51.344;7.022;2023-02-28T09:57:32;1.40;99.90
16655;DHT22;8441;51.344;7.022;2023-02-28T10:00:10;1.40;99.90
16655;DHT22;8441;51.344;7.022;2023-02-28T10:02:54;1.50;99.90
16655;DHT22;8441;51.344;7.022;2023-02-28T10:05:27;1.60;99.90
16655;DHT22;8441;51.344;7.022;2023-02-28T10:08:03;1.50;99.90
16655;DHT22;8441;51.344;7.022;2023-02-28T10:10:37;1.60;99.90
16655;DHT22;8441;51.344;7.022;2023-02-28T10:13:14;1.60;99.90
16655;DHT22;8441;51.344;7.022;2023-02-28T10:15:45;1.70;99.90
16655;DHT22;8441;51.344;7.022;2023-02-28T10:18:16;1.80;99.90
16655;DHT22;8441;51.344;7.022;2023-02-28T10:20:47;1.70;99.90
16655;DHT22;8441;51.344;7.022;2023-02-28T10:23:19;1.60;99.90
16655;DHT22;8441;51.344;7.022;2023-02-28T10:25:51;1.50;99.90
16655;DHT22;8441;51.344;7.022;2023-02-28T10:28:19;1.50;99.90
16655;DHT22;8441;51.344;7.022;2023-02-28T10:30:50;1.50;99.90
16655;DHT22;8441;51.344;7.022;2023-02-28T10:33:21;1.50;99.90
16655;DHT22;8441;51.344;7.022;2023-02-28T10:35:49;1.50;99.90
16655;DHT22;8441;51.344;7.022;2023-02-28T10:38:19;1.60;99.90
16655;DHT22;8441;51.344;7.022;2023-02-28T10:40:46;1.70;99.90
16655;DHT22;8441;51.344;7.022;2023-02-28T10:43:22;1.70;99.90
16655;DHT22;8441;51.344;7.022;2023-02-28T10:46:01;1.70;99.90
16655;DHT22;8441;51.344;7.022;2023-02-28T10:48:37;1.70;99.90
16655;DHT22;8441;51.344;7.022;2023-02-28T10:51:06;1.60;99.90
16655;DHT22;8441;51.344;7.022;2023-02-28T10:53:37;1.80;99.90
16655;DHT22;8441;51.344;7.022;2023-02-28T10:56:13;2.00;99.90
16655;DHT22;8441;51.344;7.022;2023-02-28T10:58:49;2.20;99.90
16655;DHT22;8441;51.344;7.022;2023-02-28T11:01:20;2.20;99.90
16655;DHT22;8441;51.344;7.022;2023-02-28T11:03:48;2.20;99.90
16655;DHT22;8441;51.344;7.022;2023-02-28T11:06:17;2.20;99.90
16655;DHT22;8441;51.344;7.022;2023-02-28T11:08:50;2.00;99.90
16655;DHT22;8441;51.344;7.022;2023-02-28T11:11:19;2.00;99.90
16655;DHT22;8441;51.344;7.022;2023-02-28T11:13:51;2.10;99.90
16655;DHT22;8441;51.344;7.022;2023-02-28T11:16:21;2.20;99.90
16655;DHT22;8441;51.344;7.022;2023-02-28T11:18:50;2.30;99.90
16655;DHT22;8441;51.344;7.022;2023-02-28T11:21:22;2.40;99.60
16655;DHT22;8441;51.344;7.022;2023-02-28T11:23:52;2.40;99.50
16655;DHT22;8441;51.344;7.022;2023-02-28T11:26:39;2.50;99.90
16655;DHT22;8441;51.344;7.022;2023-02-28T11:29:19;2.60;99.40
16655;DHT22;8441;51.344;7.022;2023-02-28T11:32:05;2.70;99.90
16655;DHT22;8441;51.344;7.022;2023-02-28T11:34:35;2.70;99.20
16655;DHT22;8441;51.344;7.022;2023-02-28T11:37:05;2.50;99.20
16655;DHT22;8441;51.344;7.022;2023-02-28T11:39:36;2.40;99.30
16655;DHT22;8441;51.344;7.022;2023-02-28T11:42:16;2.40;99.30
16655;DHT22;8441;51.344;7.022;2023-02-28T11:45:03;2.50;99.80
16655;DHT22;8441;51.344;7.022;2023-02-28T11:47:45;2.70;99.50
16655;DHT22;8441;51.344;7.022;2023-02-28T11:50:22;2.90;99.30
16655;DHT22;8441;51.344;7.022;2023-02-28T11:52:55;3.20;99.30
16655;DHT22;8441;51.344;7.022;2023-02-28T11:55:26;3.50;99.30
16655;DHT22;8441;51.344;7.022;2023-02-28T11:58:11;3.70;98.50
16655;DHT22;8441;51.344;7.022;2023-02-28T12:01:06;3.70;97.50
16655;DHT22;8441;51.344;7.022;2023-02-28T12:03:44;3.60;96.80
16655;DHT22;8441;51.344;7.022;2023-02-28T12:06:22;3.60;97.50
16655;DHT22;8441;51.344;7.022;2023-02-28T12:09:01;3.60;97.80
16655;DHT22;8441;51.344;7.022;2023-02-28T12:11:37;3.50;97.90
16655;DHT22;8441;51.344;7.022;2023-02-28T12:14:24;3.60;97.90
16655;DHT22;8441;51.344;7.022;2023-02-28T12:17:01;3.80;97.10
16655;DHT22;8441;51.344;7.022;2023-02-28T12:19:40;4.00;97.40
16655;DHT22;8441;51.344;7.022;2023-02-28T12:22:30;4.40;96.50
16655;DHT22;8441;51.344;7.022;2023-02-28T12:25:20;4.40;96.30
16655;DHT22;8441;51.344;7.022;2023-02-28T12:27:49;4.40;95.90
16655;DHT22;8441;51.344;7.022;2023-02-28T12:30:22;4.40;96.10
16655;DHT22;8441;51.344;7.022;2023-02-28T12:32:54;4.00;96.50
16655;DHT22;8441;51.344;7.022;2023-02-28T12:35:25;3.80;96.80
16655;DHT22;8441;51.344;7.022;2023-02-28T12:37:58;3.50;96.70
16655;DHT22;8441;51.344;7.022;2023-02-28T12:40:40;3.40;97.70
16655;DHT22;8441;51.344;7.022;2023-02-28T12:43:09;3.50;98.10
16655;DHT22;8441;51.344;7.022;2023-02-28T12:45:43;3.50;97.80
16655;DHT22;8441;51.344;7.022;2023-02-28T12:48:15;3.50;97.10
16655;DHT22;8441;51.344;7.022;2023-02-28T12:50:47;3.50;97.80
16655;DHT22;8441;51.344;7.022;2023-02-28T12:53:20;3.50;97.50
16655;DHT22;8441;51.344;7.022;2023-02-28T12:55:52;3.60;97.30
16655;DHT22;8441;51.344;7.022;2023-02-28T12:58:29;3.60;97.20
16655;DHT22;8441;51.344;7.022;2023-02-28T13:01:17;3.60;97.40
16655;DHT22;8441;51.344;7.022;2023-02-28T13:04:21;3.50;97.60
16655;DHT22;8441;51.344;7.022;2023-02-28T13:07:06;3.50;97.60
16655;DHT22;8441;51.344;7.022;2023-02-28T13:09:35;3.60;97.70
16655;DHT22;8441;51.344;7.022;2023-02-28T13:12:13;3.70;98.00
16655;DHT22;8441;51.344;7.022;2023-02-28T13:14:40;3.80;98.00
16655;DHT22;8441;51.344;7.022;2023-02-28T13:17:11;3.80;98.20
16655;DHT22;8441;51.344;7.022;2023-02-28T13:19:42;3.60;97.60
16655;DHT22;8441;51.344;7.022;2023-02-28T13:22:20;3.60;97.90
16655;DHT22;8441;51.344;7.022;2023-02-28T13:24:49;3.50;97.70
16655;DHT22;8441;51.344;7.022;2023-02-28T13:27:33;3.60;98.10
16655;DHT22;8441;51.344;7.022;2023-02-28T13:30:02;3.70;97.60
16655;DHT22;8441;51.344;7.022;2023-02-28T13:33:27;3.80;97.80
16655;DHT22;8441;51.344;7.022;2023-02-28T13:38:57;4.00;97.20
16655;DHT22;8441;51.344;7.022;2023-02-28T13:41:43;3.90;96.90
16655;DHT22;8441;51.344;7.022;2023-02-28T13:44:17;3.90;97.10
16655;DHT22;8441;51.344;7.022;2023-02-28T13:50:22;4.00;97.30
16655;DHT22;8441;51.344;7.022;2023-02-28T13:55:45;4.10;97.00
16655;DHT22;8441;51.344;7.022;2023-02-28T13:58:27;4.20;97.60
16655;DHT22;8441;51.344;7.022;2023-02-28T14:01:23;4.10;96.60
16655;DHT22;8441;51.344;7.022;2023-02-28T14:04:23;4.20;97.30
16655;DHT22;8441;51.344;7.022;2023-02-28T14:06:57;4.20;97.20
16655;DHT22;8441;51.344;7.022;2023-02-28T14:09:28;4.20;97.20
16655;DHT22;8441;51.344;7.022;2023-02-28T14:11:58;4.20;98.30
16655;DHT22;8441;51.344;7.022;2023-02-28T14:14:55;4.20;97.70
16655;DHT22;8441;51.344;7.022;2023-02-28T14:17:25;4.20;97.60
16655;DHT22;8441;51.344;7.022;2023-02-28T14:19:53;4.20;98.10
16655;DHT22;8441;51.344;7.022;2023-02-28T14:22:42;4.20;98.10
16655;DHT22;8441;51.344;7.022;2023-02-28T14:25:18;4.10;97.40
16655;DHT22;8441;51.344;7.022;2023-02-28T14:27:58;4.10;97.70
16655;DHT22;8441;51.344;7.022;2023-02-28T14:30:51;4.10;98.20
16655;DHT22;8441;51.344;7.022;2023-02-28T14:36:14;4.20;97.90
16655;DHT22;8441;51.344;7.022;2023-02-28T14:38:46;4.20;98.50
16655;DHT22;8441;51.344;7.022;2023-02-28T14:41:20;4.20;98.60
16655;DHT22;8441;51.344;7.022;2023-02-28T14:43:51;4.30;98.40
16655;DHT22;8441;51.344;7.022;2023-02-28T14:46:20;4.40;97.80
16655;DHT22;8441;51.344;7.022;2023-02-28T14:48:48;4.30;98.40
16655;DHT22;8441;51.344;7.022;2023-02-28T14:51:19;4.40;98.40
16655;DHT22;8441;51.344;7.022;2023-02-28T14:53:50;4.30;97.90
16655;DHT22;8441;51.344;7.022;2023-02-28T14:56:24;4.30;98.10
16655;DHT22;8441;51.344;7.022;2023-02-28T14:58:54;4.30;98.30
16655;DHT22;8441;51.344;7.022;2023-02-28T15:01:23;4.30;98.20
16655;DHT22;8441;51.344;7.022;2023-02-28T15:03:59;4.30;98.10
16655;DHT22;8441;51.344;7.022;2023-02-28T15:06:27;4.30;98.00
16655;DHT22;8441;51.344;7.022;2023-02-28T15:09:15;4.20;98.30
16655;DHT22;8441;51.344;7.022;2023-02-28T15:11:46;4.20;98.00
16655;DHT22;8441;51.344;7.022;2023-02-28T15:14:18;4.20;97.90
16655;DHT22;8441;51.344;7.022;2023-02-28T15:16:49;4.10;98.50
16655;DHT22;8441;51.344;7.022;2023-02-28T15:19:20;4.20;97.80
16655;DHT22;8441;51.344;7.022;2023-02-28T15:21:50;4.20;98.50
16655;DHT22;8441;51.344;7.022;2023-02-28T15:24:20;4.10;98.70
16655;DHT22;8441;51.344;7.022;2023-02-28T15:26:53;4.10;99.00
16655;DHT22;8441;51.344;7.022;2023-02-28T15:29:25;4.10;99.40
16655;DHT22;8441;51.344;7.022;2023-02-28T15:31:56;4.10;99.90
16655;DHT22;8441;51.344;7.022;2023-02-28T15:34:30;4.10;99.90
16655;DHT22;8441;51.344;7.022;2023-02-28T15:36:59;4.10;99.90
16655;DHT22;8441;51.344;7.022;2023-02-28T15:39:28;4.10;99.90
16655;DHT22;8441;51.344;7.022;2023-02-28T15:42:10;4.00;99.90
16655;DHT22;8441;51.344;7.022;2023-02-28T15:44:39;4.00;99.90
16655;DHT22;8441;51.344;7.022;2023-02-28T15:47:16;4.00;99.90
16655;DHT22;8441;51.344;7.022;2023-02-28T15:49:48;4.00;99.90
16655;DHT22;8441;51.344;7.022;2023-02-28T15:52:17;3.90;99.90
16655;DHT22;8441;51.344;7.022;2023-02-28T15:54:46;3.90;99.90
16655;DHT22;8441;51.344;7.022;2023-02-28T15:57:17;3.80;99.90
16655;DHT22;8441;51.344;7.022;2023-02-28T15:59:51;3.80;99.90
16655;DHT22;8441;51.344;7.022;2023-02-28T16:02:21;3.80;99.90
16655;DHT22;8441;51.344;7.022;2023-02-28T16:05:12;3.80;99.90
16655;DHT22;8441;51.344;7.022;2023-02-28T16:07:44;3.70;99.90
16655;DHT22;8441;51.344;7.022;2023-02-28T16:10:13;3.70;99.90
16655;DHT22;8441;51.344;7.022;2023-02-28T16:12:41;3.70;99.90
16655;DHT22;8441;51.344;7.022;2023-02-28T16:15:20;3.60;99.90
16655;DHT22;8441;51.344;7.022;2023-02-28T16:17:48;3.60;99.90
16655;DHT22;8441;51.344;7.022;2023-02-28T16:20:16;3.60;99.90
16655;DHT22;8441;51.344;7.022;2023-02-28T16:22:44;3.60;99.90
16655;DHT22;8441;51.344;7.022;2023-02-28T16:25:12;3.50;99.90
16655;DHT22;8441;51.344;7.022;2023-02-28T16:27:40;3.50;99.90
16655;DHT22;8441;51.344;7.022;2023-02-28T16:30:17;3.40;99.90
16655;DHT22;8441;51.344;7.022;2023-02-28T16:32:46;3.40;99.90
16655;DHT22;8441;51.344;7.022;2023-02-28T16:35:13;3.40;99.90
16655;DHT22;8441;51.344;7.022;2023-02-28T16:37:41;3.40;99.90
16655;DHT22;8441;51.344;7.022;2023-02-28T16:40:14;3.30;99.90
16655;DHT22;8441;51.344;7.022;2023-02-28T16:42:42;3.20;99.90
16655;DHT22;8441;51.344;7.022;2023-02-28T16:45:26;3.10;99.90
16655;DHT22;8441;51.344;7.022;2023-02-28T16:47:53;3.10;99.90
16655;DHT22;8441;51.344;7.022;2023-02-28T16:50:23;3.10;99.90